Time;durP1;ratioP1;P1;durP2;ratioP2;P2;SDS_P1;SDS_P2;PMS_P1;PMS_P2;Temp;Humidity;BMP_temperature;BMP_pressure;BME280_temperature;BME280_humidity;BME280_pressure;Samples;Min_cycle;Max_cycle;Signal;HPM_P1;HPM_P2
2021/07/06 00:00:28;;;;;;;1.40;1.05;;;;;;;;;;6214562;23;20481;-53
2021/07/06 00:02:55;;;;;;;1.83;1.33;;;;;;;;;;6215092;23;20132;-53
2021/07/06 00:05:21;;;;;;;5.55;1.40;;;;;;;;;;6215425;23;20430;-48
2021/07/06 00:07:47;;;;;;;1.48;1.17;;;;;;;;;;6216759;23;20028;-51
2021/07/06 00:10:14;;;;;;;4.97;1.17;;;;;;;;;;6216760;23;19997;-52
2021/07/06 00:12:40;;;;;;;2.33;1.33;;;;;;;;;;6217223;23;20405;-49
2021/07/06 00:15:08;;;;;;;1.42;1.30;;;;;;;;;;6216417;23;20005;-50
2021/07/06 00:17:34;;;;;;;2.28;1.13;;;;;;;;;;6216439;23;20000;-51
2021/07/06 00:20:00;;;;;;;2.03;1.67;;;;;;;;;;6216322;23;20118;-49
2021/07/06 00:22:26;;;;;;;3.70;1.63;;;;;;;;;;6217109;23;20005;-49
2021/07/06 00:24:52;;;;;;;2.35;1.70;;;;;;;;;;6217246;23;20047;-49
2021/07/06 00:27:18;;;;;;;3.78;1.75;;;;;;;;;;6216499;23;20001;-49
2021/07/06 00:29:44;;;;;;;1.35;1.20;;;;;;;;;;6215738;23;20433;-50
2021/07/06 00:32:10;;;;;;;3.60;1.60;;;;;;;;;;6216722;23;20004;-51
2021/07/06 00:34:36;;;;;;;1.90;1.50;;;;;;;;;;6216788;23;20108;-52
2021/07/06 00:37:02;;;;;;;3.30;1.15;;;;;;;;;;6216419;23;20009;-54
2021/07/06 00:39:28;;;;;;;1.45;1.25;;;;;;;;;;6216587;23;20001;-51
2021/07/06 00:41:54;;;;;;;3.63;1.27;;;;;;;;;;6216602;23;20008;-49
2021/07/06 00:44:21;;;;;;;2.40;1.75;;;;;;;;;;6217005;23;20019;-50
2021/07/06 00:46:47;;;;;;;2.35;1.60;;;;;;;;;;6216395;23;20019;-52
2021/07/06 00:49:14;;;;;;;3.15;1.70;;;;;;;;;;6215678;23;20009;-48
2021/07/06 00:51:40;;;;;;;5.60;1.60;;;;;;;;;;6216588;23;20406;-48
2021/07/06 00:54:06;;;;;;;5.53;1.45;;;;;;;;;;6216601;23;20032;-49
2021/07/06 00:56:32;;;;;;;2.15;1.55;;;;;;;;;;6216300;23;20015;-49
2021/07/06 00:58:58;;;;;;;4.00;1.30;;;;;;;;;;6215862;23;20009;-49
2021/07/06 01:01:25;;;;;;;1.73;1.30;;;;;;;;;;6216147;23;20011;-49
2021/07/06 01:03:51;;;;;;;3.40;1.48;;;;;;;;;;6215184;23;20636;-53
2021/07/06 01:06:17;;;;;;;3.78;1.40;;;;;;;;;;6215392;23;20001;-52
2021/07/06 01:08:46;;;;;;;2.08;1.30;;;;;;;;;;6214635;23;19996;-50
2021/07/06 01:11:13;;;;;;;3.92;1.40;;;;;;;;;;6215140;23;20031;-51
2021/07/06 01:13:39;;;;;;;2.22;1.70;;;;;;;;;;6215073;23;20000;-48
2021/07/06 01:16:05;;;;;;;2.15;1.60;;;;;;;;;;6215043;23;20001;-49
2021/07/06 01:18:31;;;;;;;2.75;1.30;;;;;;;;;;6214209;23;20012;-51
2021/07/06 01:20:57;;;;;;;2.65;1.60;;;;;;;;;;6215133;23;20428;-50
2021/07/06 01:23:26;;;;;;;4.35;1.58;;;;;;;;;;6215162;23;20488;-51
2021/07/06 01:25:53;;;;;;;2.53;1.40;;;;;;;;;;6214883;23;20001;-48
2021/07/06 01:28:19;;;;;;;1.67;1.27;;;;;;;;;;6215115;23;20009;-48
2021/07/06 01:30:45;;;;;;;1.20;1.10;;;;;;;;;;6214119;23;20439;-49
2021/07/06 01:33:18;;;;;;;7.97;1.63;;;;;;;;;;6214941;23;20004;-48
2021/07/06 01:35:44;;;;;;;2.92;1.40;;;;;;;;;;6215497;23;20011;-50
2021/07/06 01:38:10;;;;;;;4.00;1.33;;;;;;;;;;6214710;23;20011;-50
2021/07/06 01:40:36;;;;;;;2.25;1.55;;;;;;;;;;6214741;23;20321;-49
2021/07/06 01:43:03;;;;;;;2.03;1.40;;;;;;;;;;6215090;23;20005;-49
2021/07/06 01:45:30;;;;;;;2.15;1.70;;;;;;;;;;6214327;23;20012;-50
2021/07/06 01:47:57;;;;;;;1.85;1.30;;;;;;;;;;6214312;23;20083;-50
2021/07/06 01:50:25;;;;;;;1.70;1.38;;;;;;;;;;6214529;23;20017;-52
2021/07/06 01:52:53;;;;;;;1.85;1.17;;;;;;;;;;6214768;23;20004;-55
2021/07/06 01:55:21;;;;;;;1.40;1.10;;;;;;;;;;6214234;23;20020;-50
2021/07/06 01:57:48;;;;;;;1.35;1.25;;;;;;;;;;6213288;23;20416;-50
2021/07/06 02:00:16;;;;;;;1.45;1.30;;;;;;;;;;6214075;23;20011;-49
2021/07/06 02:02:43;;;;;;;3.17;1.23;;;;;;;;;;6214528;23;20004;-49
2021/07/06 02:05:18;;;;;;;1.45;1.35;;;;;;;;;;6214534;23;20001;-50
2021/07/06 02:07:45;;;;;;;1.65;1.40;;;;;;;;;;6214615;23;20005;-49
2021/07/06 02:10:11;;;;;;;2.75;1.20;;;;;;;;;;6214566;23;20007;-49
2021/07/06 02:12:38;;;;;;;1.70;1.30;;;;;;;;;;6214430;23;20000;-49
2021/07/06 02:15:05;;;;;;;1.42;1.33;;;;;;;;;;6214119;23;20001;-49
2021/07/06 02:17:31;;;;;;;4.28;1.70;;;;;;;;;;6214186;23;20035;-49
2021/07/06 02:19:57;;;;;;;3.45;1.67;;;;;;;;;;6214674;23;20012;-49
2021/07/06 02:22:23;;;;;;;2.10;1.30;;;;;;;;;;6214789;23;20005;-49
2021/07/06 02:24:49;;;;;;;2.25;1.50;;;;;;;;;;6214636;23;19992;-49
2021/07/06 02:27:15;;;;;;;1.73;1.40;;;;;;;;;;6214519;23;20306;-51
2021/07/06 02:29:42;;;;;;;2.30;1.52;;;;;;;;;;6213955;23;19997;-49
2021/07/06 02:32:08;;;;;;;1.95;1.42;;;;;;;;;;6213927;23;20032;-49
2021/07/06 02:34:34;;;;;;;1.52;1.40;;;;;;;;;;6214382;23;20389;-49
2021/07/06 02:37:00;;;;;;;2.90;1.70;;;;;;;;;;6214186;23;20043;-49
2021/07/06 02:39:26;;;;;;;2.40;1.35;;;;;;;;;;6213735;23;20087;-49
2021/07/06 02:41:52;;;;;;;1.52;1.30;;;;;;;;;;6214775;23;20345;-49
2021/07/06 02:44:18;;;;;;;3.92;1.60;;;;;;;;;;6214306;23;20027;-48
2021/07/06 02:46:44;;;;;;;3.63;1.48;;;;;;;;;;6213688;23;20473;-51
2021/07/06 02:49:10;;;;;;;2.05;1.48;;;;;;;;;;6213752;23;20008;-49
2021/07/06 02:51:36;;;;;;;2.83;1.52;;;;;;;;;;6214584;23;20051;-50
2021/07/06 02:54:03;;;;;;;2.78;1.60;;;;;;;;;;6214222;23;19993;-49
2021/07/06 02:56:29;;;;;;;5.57;1.42;;;;;;;;;;6214097;23;20071;-54
2021/07/06 02:58:55;;;;;;;5.03;1.40;;;;;;;;;;6213837;23;20091;-49
2021/07/06 03:01:21;;;;;;;2.20;1.30;;;;;;;;;;6213620;23;20100;-49
2021/07/06 03:03:47;;;;;;;7.18;1.35;;;;;;;;;;6214229;23;20035;-49
2021/07/06 03:06:13;;;;;;;3.53;1.48;;;;;;;;;;6214145;23;20087;-50
2021/07/06 03:08:39;;;;;;;3.28;1.60;;;;;;;;;;6213407;23;20531;-49
2021/07/06 03:11:05;;;;;;;4.15;1.40;;;;;;;;;;6214370;23;20011;-51
2021/07/06 03:13:31;;;;;;;1.92;1.58;;;;;;;;;;6214534;23;20376;-51
2021/07/06 03:15:57;;;;;;;2.03;1.83;;;;;;;;;;6213990;23;20004;-49
2021/07/06 03:18:23;;;;;;;2.33;1.60;;;;;;;;;;6213208;23;20000;-49
2021/07/06 03:20:49;;;;;;;6.78;1.80;;;;;;;;;;6214225;23;20000;-49
2021/07/06 03:23:18;;;;;;;3.25;1.58;;;;;;;;;;6213344;23;20009;-49
2021/07/06 03:25:44;;;;;;;2.22;1.60;;;;;;;;;;6213985;23;20317;-51
2021/07/06 03:28:11;;;;;;;3.20;1.65;;;;;;;;;;6213766;23;20051;-49
2021/07/06 03:30:37;;;;;;;2.25;1.60;;;;;;;;;;6213827;23;20004;-52
2021/07/06 03:33:04;;;;;;;2.35;1.75;;;;;;;;;;6213591;23;20004;-53
2021/07/06 03:35:30;;;;;;;4.32;2.15;;;;;;;;;;6213895;23;20440;-52
2021/07/06 03:37:56;;;;;;;2.15;1.70;;;;;;;;;;6213349;23;20013;-49
2021/07/06 03:40:23;;;;;;;2.40;1.70;;;;;;;;;;6214451;23;20059;-50
2021/07/06 03:42:49;;;;;;;4.47;2.08;;;;;;;;;;6216002;23;20071;-49
2021/07/06 03:45:16;;;;;;;2.72;1.73;;;;;;;;;;6215383;23;20019;-51
2021/07/06 03:47:42;;;;;;;4.47;1.88;;;;;;;;;;6215514;23;20071;-49
2021/07/06 03:50:10;;;;;;;2.05;1.75;;;;;;;;;;6215615;23;20013;-50
2021/07/06 03:52:36;;;;;;;2.22;1.90;;;;;;;;;;6215839;23;20009;-50
2021/07/06 03:55:03;;;;;;;2.35;1.70;;;;;;;;;;6215977;23;20003;-50
2021/07/06 03:57:29;;;;;;;2.17;1.73;;;;;;;;;;6215010;23;20310;-49
2021/07/06 03:59:59;;;;;;;1.60;1.50;;;;;;;;;;6215760;23;20329;-51
2021/07/06 04:02:25;;;;;;;2.50;1.73;;;;;;;;;;6215788;23;20386;-48
2021/07/06 04:04:51;;;;;;;2.80;1.77;;;;;;;;;;6215113;23;20047;-50
2021/07/06 04:07:17;;;;;;;2.28;1.90;;;;;;;;;;6215735;23;20040;-51
2021/07/06 04:09:43;;;;;;;2.30;1.98;;;;;;;;;;6214744;23;20325;-49
2021/07/06 04:12:09;;;;;;;6.32;2.13;;;;;;;;;;6215143;23;20088;-50
2021/07/06 04:14:35;;;;;;;2.20;1.92;;;;;;;;;;6216294;23;20614;-50
2021/07/06 04:17:01;;;;;;;3.90;1.80;;;;;;;;;;6214809;23;20000;-50
2021/07/06 04:19:27;;;;;;;2.08;1.80;;;;;;;;;;6215109;23;20456;-49
2021/07/06 04:21:53;;;;;;;2.45;1.90;;;;;;;;;;6215531;23;20015;-52
2021/07/06 04:24:19;;;;;;;3.92;2.05;;;;;;;;;;6215227;23;20004;-50
2021/07/06 04:26:45;;;;;;;2.22;1.70;;;;;;;;;;6215529;23;20003;-49
2021/07/06 04:29:12;;;;;;;2.95;2.17;;;;;;;;;;6214790;23;20007;-49
2021/07/06 04:31:38;;;;;;;1.90;1.60;;;;;;;;;;6215453;23;20023;-50
2021/07/06 04:34:04;;;;;;;3.55;1.80;;;;;;;;;;6215485;23;20043;-49
2021/07/06 04:36:30;;;;;;;2.83;1.98;;;;;;;;;;6214905;23;20012;-48
2021/07/06 04:38:56;;;;;;;4.35;2.05;;;;;;;;;;6214735;23;20401;-49
2021/07/06 04:41:22;;;;;;;2.42;1.88;;;;;;;;;;6215587;23;20032;-52
2021/07/06 04:43:48;;;;;;;4.55;1.90;;;;;;;;;;6214731;23;20011;-53
2021/07/06 04:46:14;;;;;;;2.22;1.80;;;;;;;;;;6215294;23;20023;-49
2021/07/06 04:48:40;;;;;;;3.17;1.83;;;;;;;;;;6214700;23;20032;-50
2021/07/06 04:51:09;;;;;;;2.42;1.73;;;;;;;;;;6214845;23;20016;-52
2021/07/06 04:53:38;;;;;;;2.05;1.77;;;;;;;;;;6215057;23;20004;-50
2021/07/06 04:56:04;;;;;;;5.32;1.60;;;;;;;;;;6215430;23;20009;-50
2021/07/06 04:58:31;;;;;;;3.63;1.90;;;;;;;;;;6214350;23;20012;-50
2021/07/06 05:00:58;;;;;;;3.60;1.85;;;;;;;;;;6215385;23;20001;-49
2021/07/06 05:03:24;;;;;;;3.53;1.85;;;;;;;;;;6214901;23;20370;-48
2021/07/06 05:05:50;;;;;;;3.28;2.40;;;;;;;;;;6214667;23;20036;-52
2021/07/06 05:08:16;;;;;;;2.42;1.75;;;;;;;;;;6215215;23;19997;-49
2021/07/06 05:10:43;;;;;;;1.95;1.75;;;;;;;;;;6215183;23;20020;-49
2021/07/06 05:13:08;;;;;;;2.83;2.10;;;;;;;;;;6214756;23;20339;-51
2021/07/06 05:15:34;;;;;;;2.80;1.67;;;;;;;;;;6214577;23;20008;-52
2021/07/06 05:18:00;;;;;;;2.67;1.90;;;;;;;;;;6213486;23;20008;-50
2021/07/06 05:20:27;;;;;;;4.30;2.08;;;;;;;;;;6214832;23;20008;-53
2021/07/06 05:22:52;;;;;;;2.63;1.83;;;;;;;;;;6214915;23;20004;-50
2021/07/06 05:25:18;;;;;;;3.95;1.83;;;;;;;;;;6214109;23;20279;-52
2021/07/06 05:27:45;;;;;;;2.83;1.80;;;;;;;;;;6214085;23;20007;-52
2021/07/06 05:30:11;;;;;;;4.93;1.65;;;;;;;;;;6214037;23;20039;-51
2021/07/06 05:32:38;;;;;;;4.30;1.77;;;;;;;;;;6215103;23;20004;-48
2021/07/06 05:35:05;;;;;;;2.45;1.52;;;;;;;;;;6213833;23;20032;-49
2021/07/06 05:37:31;;;;;;;3.17;1.70;;;;;;;;;;6214717;23;20008;-49
2021/07/06 05:39:57;;;;;;;2.63;1.40;;;;;;;;;;6213885;23;20083;-51
2021/07/06 05:42:23;;;;;;;2.15;1.58;;;;;;;;;;6187844;23;20036;-50
2021/07/06 05:44:49;;;;;;;2.85;1.85;;;;;;;;;;6214259;23;20426;-49
2021/07/06 05:47:15;;;;;;;3.65;1.50;;;;;;;;;;6214018;23;20131;-50
2021/07/06 05:49:41;;;;;;;2.33;1.55;;;;;;;;;;6214100;23;20075;-53
2021/07/06 05:52:07;;;;;;;2.35;1.40;;;;;;;;;;6214808;23;20027;-53
2021/07/06 05:54:33;;;;;;;2.58;1.23;;;;;;;;;;6214625;23;20004;-54
2021/07/06 05:56:59;;;;;;;1.67;1.38;;;;;;;;;;6215005;23;20090;-52
2021/07/06 05:59:25;;;;;;;4.30;1.40;;;;;;;;;;6213278;23;20004;-48
2021/07/06 06:01:51;;;;;;;2.10;1.40;;;;;;;;;;6214453;23;20321;-50
2021/07/06 06:04:17;;;;;;;1.20;1.10;;;;;;;;;;6214775;23;20051;-54
2021/07/06 06:06:43;;;;;;;2.88;1.40;;;;;;;;;;6214232;23;20318;-50
2021/07/06 06:09:09;;;;;;;2.58;1.55;;;;;;;;;;6214339;23;20410;-49
2021/07/06 06:11:35;;;;;;;4.63;1.60;;;;;;;;;;6214411;23;20436;-48
2021/07/06 06:14:01;;;;;;;1.58;1.40;;;;;;;;;;6214464;23;19996;-49
2021/07/06 06:16:28;;;;;;;2.08;1.10;;;;;;;;;;6214527;23;20000;-50
2021/07/06 06:18:55;;;;;;;3.38;1.40;;;;;;;;;;6212153;23;20008;-48
2021/07/06 06:21:21;;;;;;;1.88;1.30;;;;;;;;;;6214888;23;20084;-50
2021/07/06 06:23:47;;;;;;;4.05;1.17;;;;;;;;;;6214750;23;20449;-51
2021/07/06 06:26:13;;;;;;;2.78;1.20;;;;;;;;;;6213944;23;20005;-50
2021/07/06 06:28:40;;;;;;;3.15;0.98;;;;;;;;;;6213098;23;20006;-49
2021/07/06 06:31:06;;;;;;;2.20;1.08;;;;;;;;;;6214159;23;20058;-49
2021/07/06 06:33:32;;;;;;;1.42;1.02;;;;;;;;;;6213617;23;20310;-50
2021/07/06 06:35:58;;;;;;;2.22;1.02;;;;;;;;;;6214153;23;20011;-49
2021/07/06 06:38:24;;;;;;;3.00;1.00;;;;;;;;;;6213474;23;20000;-48
2021/07/06 06:40:50;;;;;;;2.28;0.93;;;;;;;;;;6214561;23;20325;-48
2021/07/06 06:43:16;;;;;;;3.60;1.20;;;;;;;;;;6214183;23;20005;-49
2021/07/06 06:45:43;;;;;;;2.00;1.20;;;;;;;;;;6214245;23;20016;-49
2021/07/06 06:48:09;;;;;;;1.35;1.08;;;;;;;;;;6213094;23;20001;-52
2021/07/06 06:50:35;;;;;;;1.45;1.35;;;;;;;;;;6213880;23;20088;-50
2021/07/06 06:53:01;;;;;;;2.60;1.08;;;;;;;;;;6213899;23;20471;-49
2021/07/06 06:55:27;;;;;;;3.72;1.00;;;;;;;;;;6214370;23;20000;-49
2021/07/06 06:57:53;;;;;;;3.03;0.95;;;;;;;;;;6213509;23;19996;-50
2021/07/06 07:00:19;;;;;;;1.85;0.80;;;;;;;;;;6213385;23;20401;-51
2021/07/06 07:02:48;;;;;;;1.70;0.52;;;;;;;;;;6214283;23;19997;-51
2021/07/06 07:05:14;;;;;;;2.03;0.95;;;;;;;;;;6213444;23;20020;-49
2021/07/06 07:07:40;;;;;;;2.20;0.90;;;;;;;;;;6213738;23;20405;-52
2021/07/06 07:10:07;;;;;;;5.10;0.70;;;;;;;;;;6213017;23;20004;-49
2021/07/06 07:12:35;;;;;;;1.95;1.02;;;;;;;;;;6213715;23;19997;-49
2021/07/06 07:15:01;;;;;;;2.45;0.90;;;;;;;;;;6214543;23;20084;-50
2021/07/06 07:17:27;;;;;;;4.32;0.80;;;;;;;;;;6215721;23;20386;-49
2021/07/06 07:19:53;;;;;;;1.67;0.73;;;;;;;;;;6215391;23;20032;-50
2021/07/06 07:22:19;;;;;;;1.77;0.80;;;;;;;;;;6216176;23;20005;-49
2021/07/06 07:24:46;;;;;;;1.10;0.70;;;;;;;;;;6216168;23;20009;-51
2021/07/06 07:27:12;;;;;;;1.75;1.00;;;;;;;;;;6215567;23;20043;-49
2021/07/06 07:29:38;;;;;;;1.75;0.90;;;;;;;;;;6215045;23;19997;-49
2021/07/06 07:32:05;;;;;;;1.70;0.88;;;;;;;;;;6188507;23;20005;-50
2021/07/06 07:34:31;;;;;;;0.93;0.70;;;;;;;;;;6188983;23;20055;-54
2021/07/06 07:36:57;;;;;;;2.53;0.68;;;;;;;;;;6215868;23;20039;-49
2021/07/06 07:39:25;;;;;;;1.90;0.80;;;;;;;;;;6215521;23;20005;-52
2021/07/06 07:41:51;;;;;;;0.93;0.70;;;;;;;;;;6215901;23;20425;-49
2021/07/06 07:44:17;;;;;;;3.50;1.08;;;;;;;;;;6216217;23;20000;-49
2021/07/06 07:46:43;;;;;;;1.20;0.70;;;;;;;;;;6214458;23;20047;-50
2021/07/06 07:49:09;;;;;;;2.28;1.38;;;;;;;;;;6215200;23;20017;-52
2021/07/06 07:51:35;;;;;;;1.50;0.80;;;;;;;;;;6215279;23;20143;-49
2021/07/06 07:54:01;;;;;;;0.95;0.80;;;;;;;;;;6214324;23;20004;-48
2021/07/06 07:56:27;;;;;;;3.05;0.90;;;;;;;;;;6215244;23;20075;-51
2021/07/06 07:58:53;;;;;;;1.83;0.90;;;;;;;;;;6215404;23;20070;-49
2021/07/06 08:01:20;;;;;;;1.63;0.75;;;;;;;;;;6189630;23;20007;-50
2021/07/06 08:03:46;;;;;;;1.55;0.75;;;;;;;;;;6216042;23;20000;-49
2021/07/06 08:06:12;;;;;;;1.00;0.65;;;;;;;;;;6215422;23;20064;-50
2021/07/06 08:08:38;;;;;;;5.07;0.98;;;;;;;;;;6214879;23;20001;-49
2021/07/06 08:11:04;;;;;;;4.95;0.77;;;;;;;;;;6215191;23;20051;-50
2021/07/06 08:13:33;;;;;;;1.23;0.70;;;;;;;;;;6214755;23;20001;-53
2021/07/06 08:15:59;;;;;;;1.45;0.70;;;;;;;;;;6215073;23;20016;-52
2021/07/06 08:18:25;;;;;;;3.17;0.90;;;;;;;;;;6214511;23;20008;-53
2021/07/06 08:20:51;;;;;;;0.75;0.63;;;;;;;;;;6214651;23;20005;-52
2021/07/06 08:23:17;;;;;;;2.03;0.98;;;;;;;;;;6213660;23;20055;-49
2021/07/06 08:25:43;;;;;;;2.35;0.85;;;;;;;;;;6214849;23;20011;-50
2021/07/06 08:28:09;;;;;;;1.92;0.73;;;;;;;;;;6213915;23;20051;-49
2021/07/06 08:30:35;;;;;;;2.00;0.73;;;;;;;;;;6214548;23;19997;-55
2021/07/06 08:33:02;;;;;;;2.38;0.90;;;;;;;;;;6214492;23;20041;-49
2021/07/06 08:35:28;;;;;;;2.85;0.70;;;;;;;;;;6214974;23;20043;-49
2021/07/06 08:37:54;;;;;;;2.92;0.57;;;;;;;;;;6213643;23;20004;-49
2021/07/06 08:40:20;;;;;;;5.03;1.00;;;;;;;;;;6214966;23;20417;-51
2021/07/06 08:42:48;;;;;;;1.02;0.50;;;;;;;;;;6215026;23;20004;-51
2021/07/06 08:45:14;;;;;;;0.63;0.50;;;;;;;;;;6214990;23;20005;-48
2021/07/06 08:47:44;;;;;;;2.50;0.77;;;;;;;;;;6214675;23;20051;-49
2021/07/06 08:50:10;;;;;;;3.65;1.00;;;;;;;;;;6214285;23;20038;-50
2021/07/06 08:52:37;;;;;;;2.80;0.80;;;;;;;;;;6213615;23;20020;-49
2021/07/06 08:55:04;;;;;;;2.72;1.15;;;;;;;;;;6212883;23;20031;-51
2021/07/06 08:57:30;;;;;;;2.55;0.63;;;;;;;;;;6212710;23;20032;-52
2021/07/06 08:59:56;;;;;;;0.57;0.52;;;;;;;;;;6212457;23;20299;-49
2021/07/06 09:02:22;;;;;;;3.60;0.68;;;;;;;;;;6213364;23;19997;-51
2021/07/06 09:04:52;;;;;;;1.08;0.60;;;;;;;;;;6214858;23;20004;-51
2021/07/06 09:07:19;;;;;;;1.23;0.50;;;;;;;;;;6211741;23;20009;-51
2021/07/06 09:09:46;;;;;;;2.28;0.60;;;;;;;;;;6212307;23;20007;-51
2021/07/06 09:12:13;;;;;;;1.50;0.80;;;;;;;;;;6212501;23;20076;-51
2021/07/06 09:14:49;;;;;;;0.98;0.45;;;;;;;;;;6212837;23;20009;-50
2021/07/06 09:17:22;;;;;;;2.30;0.60;;;;;;;;;;6212984;23;20071;-50
2021/07/06 09:19:49;;;;;;;4.70;0.60;;;;;;;;;;6212502;23;20439;-51
2021/07/06 09:22:20;;;;;;;1.05;0.52;;;;;;;;;;6212318;23;20428;-50
2021/07/06 09:24:47;;;;;;;1.45;0.80;;;;;;;;;;6213879;23;20052;-54
2021/07/06 09:27:22;;;;;;;2.28;0.68;;;;;;;;;;6213867;23;20012;-51
2021/07/06 09:30:07;;;;;;;5.93;1.08;;;;;;;;;;6213325;23;20766;-53
2021/07/06 09:32:37;;;;;;;1.13;0.73;;;;;;;;;;6215369;23;20008;-51
2021/07/06 09:35:25;;;;;;;2.40;0.82;;;;;;;;;;6214845;23;20078;-49
2021/07/06 09:37:53;;;;;;;1.60;0.80;;;;;;;;;;6212739;23;20013;-51
2021/07/06 09:40:23;;;;;;;0.70;0.47;;;;;;;;;;6214261;23;20063;-49
2021/07/06 09:43:09;;;;;;;0.73;0.50;;;;;;;;;;6214338;23;20072;-55
2021/07/06 09:45:35;;;;;;;4.75;0.77;;;;;;;;;;6214451;23;20083;-51
2021/07/06 09:48:08;;;;;;;0.85;0.40;;;;;;;;;;6186812;23;20019;-48
2021/07/06 09:50:34;;;;;;;0.82;0.50;;;;;;;;;;6214057;23;20446;-48
2021/07/06 09:53:03;;;;;;;2.88;0.50;;;;;;;;;;6214243;23;20005;-51
2021/07/06 09:55:33;;;;;;;0.95;0.55;;;;;;;;;;6214147;23;20006;-51
2021/07/06 09:58:04;;;;;;;0.47;0.40;;;;;;;;;;6213638;23;20046;-49
2021/07/06 10:00:31;;;;;;;1.83;0.40;;;;;;;;;;6213649;23;20005;-50
2021/07/06 10:03:01;;;;;;;1.60;0.60;;;;;;;;;;6214010;23;20055;-50
2021/07/06 10:05:28;;;;;;;0.55;0.35;;;;;;;;;;6214750;23;20413;-49
2021/07/06 10:07:54;;;;;;;4.53;0.50;;;;;;;;;;6213950;23;20001;-49
2021/07/06 10:10:21;;;;;;;0.55;0.30;;;;;;;;;;6214040;23;20594;-48
2021/07/06 10:12:49;;;;;;;2.92;0.40;;;;;;;;;;6214243;23;20067;-49
2021/07/06 10:15:16;;;;;;;0.98;0.40;;;;;;;;;;6214443;23;20007;-49
2021/07/06 10:17:43;;;;;;;2.70;0.50;;;;;;;;;;6214485;23;20066;-49
2021/07/06 10:20:10;;;;;;;3.83;0.43;;;;;;;;;;6214186;23;20028;-49
2021/07/06 10:22:37;;;;;;;0.20;0.20;;;;;;;;;;6213838;23;20009;-48
2021/07/06 10:25:04;;;;;;;0.63;0.43;;;;;;;;;;6214654;23;20421;-50
2021/07/06 10:27:35;;;;;;;2.17;0.80;;;;;;;;;;6214300;23;20076;-49
2021/07/06 10:30:23;;;;;;;0.52;0.38;;;;;;;;;;6214115;23;20001;-49
2021/07/06 10:32:54;;;;;;;2.50;0.50;;;;;;;;;;6214818;23;20772;-49
2021/07/06 10:35:41;;;;;;;0.43;0.30;;;;;;;;;;6214631;23;20023;-49
2021/07/06 10:38:26;;;;;;;0.80;0.50;;;;;;;;;;6214196;23;20005;-50
2021/07/06 10:40:52;;;;;;;1.20;0.60;;;;;;;;;;6214391;23;20436;-50
2021/07/06 10:43:31;;;;;;;1.48;0.30;;;;;;;;;;6214555;23;20028;-49
2021/07/06 10:45:57;;;;;;;0.93;0.38;;;;;;;;;;6214747;23;20009;-50
2021/07/06 10:48:41;;;;;;;1.63;0.40;;;;;;;;;;6214207;23;20293;-50
2021/07/06 10:51:07;;;;;;;2.08;0.40;;;;;;;;;;6213917;23;20012;-49
2021/07/06 10:53:33;;;;;;;1.35;0.60;;;;;;;;;;6214404;23;20001;-48
2021/07/06 10:56:02;;;;;;;0.43;0.30;;;;;;;;;;6214200;23;20058;-49
2021/07/06 10:58:47;;;;;;;1.65;0.28;;;;;;;;;;6214708;23;20012;-51
2021/07/06 11:01:33;;;;;;;1.13;0.20;;;;;;;;;;6214663;23;20036;-49
2021/07/06 11:03:59;;;;;;;1.08;0.30;;;;;;;;;;6214444;23;20040;-49
2021/07/06 11:06:43;;;;;;;1.95;0.38;;;;;;;;;;6214382;23;20004;-49
2021/07/06 11:09:09;;;;;;;1.65;0.40;;;;;;;;;;6213968;23;20005;-49
2021/07/06 11:11:36;;;;;;;0.90;0.40;;;;;;;;;;6214010;23;20000;-49
2021/07/06 11:14:18;;;;;;;1.33;0.35;;;;;;;;;;6214430;23;19997;-49
2021/07/06 11:16:43;;;;;;;2.08;0.40;;;;;;;;;;6214546;23;20001;-49
2021/07/06 11:19:28;;;;;;;2.25;0.50;;;;;;;;;;6213908;23;20000;-49
2021/07/06 11:22:08;;;;;;;3.25;0.45;;;;;;;;;;6214435;23;20032;-50
2021/07/06 11:24:48;;;;;;;1.58;0.40;;;;;;;;;;6214190;23;20000;-51
2021/07/06 11:27:15;;;;;;;0.55;0.32;;;;;;;;;;6214382;23;20440;-49
2021/07/06 11:29:42;;;;;;;1.40;0.30;;;;;;;;;;6213897;23;20005;-48
2021/07/06 11:32:09;;;;;;;1.73;0.50;;;;;;;;;;6214315;23;20087;-48
2021/07/06 11:34:35;;;;;;;1.23;0.40;;;;;;;;;;6214382;23;20012;-52
2021/07/06 11:37:12;;;;;;;3.80;0.75;;;;;;;;;;6214402;23;20048;-50
2021/07/06 11:39:38;;;;;;;0.55;0.38;;;;;;;;;;6213462;23;20094;-48
2021/07/06 11:42:04;;;;;;;2.17;0.50;;;;;;;;;;6214348;23;20084;-50
2021/07/06 11:44:30;;;;;;;2.50;0.50;;;;;;;;;;6214474;23;20075;-49
2021/07/06 11:47:13;;;;;;;1.80;0.40;;;;;;;;;;6214575;23;20298;-51
2021/07/06 11:49:39;;;;;;;0.40;0.22;;;;;;;;;;6213806;23;20019;-49
2021/07/06 11:52:06;;;;;;;1.00;0.30;;;;;;;;;;6214002;23;20000;-51
2021/07/06 11:54:32;;;;;;;0.65;0.40;;;;;;;;;;6214399;23;20341;-51
2021/07/06 11:57:08;;;;;;;1.48;0.40;;;;;;;;;;6213834;23;20526;-50
2021/07/06 11:59:34;;;;;;;1.10;0.40;;;;;;;;;;6213791;23;20080;-50
2021/07/06 12:02:05;;;;;;;0.90;0.30;;;;;;;;;;6215173;23;20028;-50
2021/07/06 12:04:31;;;;;;;0.70;0.38;;;;;;;;;;6216284;23;20713;-48
2021/07/06 12:07:07;;;;;;;1.33;0.40;;;;;;;;;;6215786;23;20011;-52
2021/07/06 12:09:34;;;;;;;1.75;0.30;;;;;;;;;;6215752;23;19997;-50
2021/07/06 12:12:29;;;;;;;2.13;0.55;;;;;;;;;;6215562;23;19997;-49
2021/07/06 12:14:55;;;;;;;2.20;0.40;;;;;;;;;;6184819;23;20352;-51
2021/07/06 12:17:25;;;;;;;1.77;0.43;;;;;;;;;;6215880;23;20047;-49
2021/07/06 12:19:52;;;;;;;0.57;0.43;;;;;;;;;;6215662;23;20055;-51
2021/07/06 12:22:19;;;;;;;0.88;0.25;;;;;;;;;;6215842;23;20027;-49
2021/07/06 12:24:45;;;;;;;1.40;0.20;;;;;;;;;;6215958;23;20001;-48
2021/07/06 12:27:14;;;;;;;0.60;0.25;;;;;;;;;;6215674;23;20050;-49
2021/07/06 12:29:40;;;;;;;0.45;0.30;;;;;;;;;;6215549;23;20028;-48
2021/07/06 12:32:13;;;;;;;0.40;0.30;;;;;;;;;;6216174;23;20009;-49
2021/07/06 12:34:46;;;;;;;0.40;0.20;;;;;;;;;;6215921;23;20007;-49
2021/07/06 12:37:15;;;;;;;0.30;0.25;;;;;;;;;;6216022;23;20004;-49
2021/07/06 12:39:42;;;;;;;2.42;0.45;;;;;;;;;;6215233;23;20048;-51
2021/07/06 12:42:13;;;;;;;0.43;0.20;;;;;;;;;;6215545;23;20347;-49
2021/07/06 12:44:38;;;;;;;2.63;0.52;;;;;;;;;;6215839;23;20080;-49
2021/07/06 12:47:17;;;;;;;2.13;0.30;;;;;;;;;;6215637;23;20058;-50
2021/07/06 12:50:03;;;;;;;2.28;0.32;;;;;;;;;;6215150;23;20009;-51
2021/07/06 12:52:39;;;;;;;0.30;0.10;;;;;;;;;;6215819;23;20302;-50
2021/07/06 12:55:09;;;;;;;0.95;0.30;;;;;;;;;;6215674;23;20008;-52
2021/07/06 12:57:35;;;;;;;1.65;0.20;;;;;;;;;;6214984;23;20031;-48
2021/07/06 13:00:14;;;;;;;1.90;0.30;;;;;;;;;;6215778;23;20004;-49
2021/07/06 13:02:40;;;;;;;1.08;0.10;;;;;;;;;;6215706;23;20014;-50
2021/07/06 13:05:08;;;;;;;0.60;0.38;;;;;;;;;;6215591;23;20233;-49
2021/07/06 13:07:34;;;;;;;2.72;0.30;;;;;;;;;;6215438;23;20074;-50
2021/07/06 13:10:00;;;;;;;1.70;0.40;;;;;;;;;;6214796;23;20001;-49
2021/07/06 13:12:27;;;;;;;0.90;0.40;;;;;;;;;;6215093;23;20063;-51
2021/07/06 13:14:54;;;;;;;0.77;0.20;;;;;;;;;;6215908;23;20000;-49
2021/07/06 13:17:23;;;;;;;0.43;0.13;;;;;;;;;;6215633;23;20005;-51
2021/07/06 13:20:05;;;;;;;1.00;0.20;;;;;;;;;;6215437;23;20001;-51
2021/07/06 13:22:31;;;;;;;0.30;0.20;;;;;;;;;;6215189;23;20087;-50
2021/07/06 13:25:00;;;;;;;0.65;0.20;;;;;;;;;;6214935;23;20062;-53
2021/07/06 13:27:32;;;;;;;1.30;0.20;;;;;;;;;;6214762;23;20015;-49
2021/07/06 13:29:59;;;;;;;0.10;0.08;;;;;;;;;;6215081;23;20477;-50
2021/07/06 13:32:26;;;;;;;2.03;0.28;;;;;;;;;;6215488;23;20084;-54
2021/07/06 13:34:52;;;;;;;0.22;0.15;;;;;;;;;;6215180;23;20003;-49
2021/07/06 13:37:17;;;;;;;2.00;0.38;;;;;;;;;;6214559;23;20004;-49
2021/07/06 13:39:43;;;;;;;1.60;0.28;;;;;;;;;;6214613;23;20000;-50
2021/07/06 13:42:09;;;;;;;0.63;0.20;;;;;;;;;;6214589;23;20005;-50
2021/07/06 13:44:37;;;;;;;0.52;0.20;;;;;;;;;;6215050;23;20295;-49
2021/07/06 13:47:04;;;;;;;1.00;0.22;;;;;;;;;;6214540;23;20071;-52
2021/07/06 13:49:31;;;;;;;2.00;0.20;;;;;;;;;;6214293;23;20062;-51
2021/07/06 13:51:59;;;;;;;1.55;0.35;;;;;;;;;;6215160;23;20075;-51
2021/07/06 13:54:27;;;;;;;0.65;0.10;;;;;;;;;;6214668;23;20016;-49
2021/07/06 13:56:53;;;;;;;2.50;0.30;;;;;;;;;;6214641;23;20051;-50
2021/07/06 13:59:19;;;;;;;1.20;0.20;;;;;;;;;;6213743;23;20647;-49
2021/07/06 14:01:46;;;;;;;3.25;0.50;;;;;;;;;;6214301;23;20000;-51
2021/07/06 14:04:12;;;;;;;1.10;0.20;;;;;;;;;;6214908;23;20337;-54
2021/07/06 14:06:38;;;;;;;0.60;0.20;;;;;;;;;;6187609;23;20032;-52
2021/07/06 14:09:05;;;;;;;1.27;0.38;;;;;;;;;;6214110;23;20000;-52
2021/07/06 14:11:31;;;;;;;4.10;0.32;;;;;;;;;;6215175;23;20005;-49
2021/07/06 14:13:57;;;;;;;4.00;0.30;;;;;;;;;;6214359;23;20414;-51
2021/07/06 14:16:23;;;;;;;0.60;0.30;;;;;;;;;;6214094;23;20027;-51
2021/07/06 14:18:49;;;;;;;0.30;0.20;;;;;;;;;;6213733;23;20047;-49
2021/07/06 14:21:15;;;;;;;4.07;0.45;;;;;;;;;;6214611;23;20389;-49
2021/07/06 14:23:41;;;;;;;0.13;0.10;;;;;;;;;;6213526;23;20046;-54
2021/07/06 14:26:07;;;;;;;3.35;0.30;;;;;;;;;;6212158;23;20341;-49
2021/07/06 14:28:34;;;;;;;0.50;0.22;;;;;;;;;;6213019;23;19993;-49
2021/07/06 14:30:59;;;;;;;0.60;0.22;;;;;;;;;;6213830;23;20003;-52
2021/07/06 14:33:25;;;;;;;1.25;0.20;;;;;;;;;;6213007;23;20001;-49
2021/07/06 14:35:51;;;;;;;0.55;0.10;;;;;;;;;;6213863;23;20275;-51
2021/07/06 14:38:17;;;;;;;1.73;0.30;;;;;;;;;;6213720;23;20004;-50
2021/07/06 14:40:43;;;;;;;4.55;0.52;;;;;;;;;;6214138;23;20054;-49
2021/07/06 14:43:09;;;;;;;1.20;0.32;;;;;;;;;;6214085;23;20012;-49
2021/07/06 14:45:35;;;;;;;0.75;0.25;;;;;;;;;;6213800;23;20039;-49